sensor_id;sensor_type;location;lat;lon;timestamp;pressure;altitude;pressure_sealevel;temperature;humidity
13954;BME280;7049;49.444;8.522;2022-10-17T00:01:25;77807.59;;;-3.47;95.83
13954;BME280;7049;49.444;8.522;2022-10-17T00:06:28;77822.25;;;-3.47;95.52
13954;BME280;7049;49.444;8.522;2022-10-17T00:11:30;77828.53;;;-3.47;95.55
13954;BME280;7049;49.444;8.522;2022-10-17T00:16:34;77847.38;;;-3.47;96.33
13954;BME280;7049;49.444;8.522;2022-10-17T00:21:37;77845.28;;;-3.47;96.60
13954;BME280;7049;49.444;8.522;2022-10-17T00:26:39;77851.56;;;-3.47;96.55
13954;BME280;7049;49.444;8.522;2022-10-17T00:31:40;77857.81;;;-3.47;96.44
13954;BME280;7049;49.444;8.522;2022-10-17T00:36:43;77872.47;;;-3.47;96.52
13954;BME280;7049;49.444;8.522;2022-10-17T00:41:45;77893.41;;;-3.47;96.87
13954;BME280;7049;49.444;8.522;2022-10-17T00:46:46;77899.69;;;-3.47;96.96
13954;BME280;7049;49.444;8.522;2022-10-17T00:51:52;77872.47;;;-3.47;96.12
13954;BME280;7049;49.444;8.522;2022-10-17T00:56:54;77887.13;;;-3.47;95.88
13954;BME280;7049;49.444;8.522;2022-10-17T01:01:59;77897.59;;;-3.47;96.37
13954;BME280;7049;49.444;8.522;2022-10-17T01:07:02;77903.88;;;-3.47;96.98
13954;BME280;7049;49.444;8.522;2022-10-17T01:12:10;77901.78;;;-3.47;96.67
13954;BME280;7049;49.444;8.522;2022-10-17T01:17:21;77905.97;;;-3.47;96.74
13954;BME280;7049;49.444;8.522;2022-10-17T01:22:31;77908.06;;;-3.47;97.27
13954;BME280;7049;49.444;8.522;2022-10-17T01:27:52;77910.13;;;-3.47;97.69
13954;BME280;7049;49.444;8.522;2022-10-17T01:33:02;77918.50;;;-3.47;98.16
13954;BME280;7049;49.444;8.522;2022-10-17T01:38:09;77905.97;;;-3.47;98.27
13954;BME280;7049;49.444;8.522;2022-10-17T01:43:15;77922.69;;;-3.47;98.70
13954;BME280;7049;49.444;8.522;2022-10-17T01:48:23;77933.16;;;-3.47;99.02
13954;BME280;7049;49.444;8.522;2022-10-17T01:53:29;77935.25;;;-3.47;99.16
13954;BME280;7049;49.444;8.522;2022-10-17T01:58:36;77922.69;;;-3.47;99.08
13954;BME280;7049;49.444;8.522;2022-10-17T02:03:42;77918.50;;;-3.47;98.07
13954;BME280;7049;49.444;8.522;2022-10-17T02:08:46;77922.69;;;-3.47;98.16
13954;BME280;7049;49.444;8.522;2022-10-17T02:14:12;77926.88;;;-3.47;98.60
13954;BME280;7049;49.444;8.522;2022-10-17T02:19:40;77935.25;;;-3.47;99.07
13954;BME280;7049;49.444;8.522;2022-10-17T02:24:48;77939.44;;;-3.47;99.00
13954;BME280;7049;49.444;8.522;2022-10-17T02:29:56;77931.06;;;-3.47;98.41
13954;BME280;7049;49.444;8.522;2022-10-17T02:35:01;77945.72;;;-3.47;98.74
13954;BME280;7049;49.444;8.522;2022-10-17T02:40:05;77968.72;;;-3.47;99.27
13954;BME280;7049;49.444;8.522;2022-10-17T02:45:09;77977.09;;;-3.47;99.46
13954;BME280;7049;49.444;8.522;2022-10-17T02:50:13;77947.81;;;-3.47;98.48
13954;BME280;7049;49.444;8.522;2022-10-17T02:55:17;77945.72;;;-3.47;98.25
13954;BME280;7049;49.444;8.522;2022-10-17T03:00:21;77933.16;;;-3.47;97.74
13954;BME280;7049;49.444;8.522;2022-10-17T03:05:26;77943.63;;;-3.47;98.57
13954;BME280;7049;49.444;8.522;2022-10-17T03:10:27;77935.25;;;-3.47;100.00
13954;BME280;7049;49.444;8.522;2022-10-17T03:15:29;77926.88;;;-3.47;100.00
13954;BME280;7049;49.444;8.522;2022-10-17T03:20:32;77918.50;;;-3.47;100.00
13954;BME280;7049;49.444;8.522;2022-10-17T03:25:33;77926.88;;;-3.47;100.00
13954;BME280;7049;49.444;8.522;2022-10-17T03:30:37;77924.78;;;-3.47;100.00
13954;BME280;7049;49.444;8.522;2022-10-17T03:35:40;77931.06;;;-3.47;100.00
13954;BME280;7049;49.444;8.522;2022-10-17T03:40:41;77924.78;;;-3.47;100.00
13954;BME280;7049;49.444;8.522;2022-10-17T03:45:43;77928.97;;;-3.47;100.00
13954;BME280;7049;49.444;8.522;2022-10-17T03:50:45;77962.47;;;-3.47;100.00
13954;BME280;7049;49.444;8.522;2022-10-17T03:55:47;77977.09;;;-3.47;100.00
13954;BME280;7049;49.444;8.522;2022-10-17T04:00:48;77995.94;;;-3.47;100.00
13954;BME280;7049;49.444;8.522;2022-10-17T04:05:51;78008.50;;;-3.47;100.00
13954;BME280;7049;49.444;8.522;2022-10-17T04:10:57;78006.41;;;-3.47;100.00
13954;BME280;7049;49.444;8.522;2022-10-17T04:16:00;78006.41;;;-3.47;100.00
13954;BME280;7049;49.444;8.522;2022-10-17T04:21:04;78014.78;;;-3.47;100.00
13954;BME280;7049;49.444;8.522;2022-10-17T04:26:06;78002.22;;;-3.47;100.00
13954;BME280;7049;49.444;8.522;2022-10-17T04:31:11;78006.41;;;-3.47;100.00
13954;BME280;7049;49.444;8.522;2022-10-17T04:36:15;78012.69;;;-3.47;100.00
13954;BME280;7049;49.444;8.522;2022-10-17T04:41:17;78004.31;;;-3.47;100.00
13954;BME280;7049;49.444;8.522;2022-10-17T04:46:19;78004.31;;;-3.47;100.00
13954;BME280;7049;49.444;8.522;2022-10-17T04:51:21;78006.41;;;-3.47;100.00
13954;BME280;7049;49.444;8.522;2022-10-17T04:56:24;78010.59;;;-3.47;100.00
13954;BME280;7049;49.444;8.522;2022-10-17T05:01:25;78029.41;;;-3.47;100.00
13954;BME280;7049;49.444;8.522;2022-10-17T05:06:28;78008.50;;;-3.47;100.00
13954;BME280;7049;49.444;8.522;2022-10-17T05:11:30;78008.50;;;-3.47;100.00
13954;BME280;7049;49.444;8.522;2022-10-17T05:16:32;78014.78;;;-3.47;100.00
13954;BME280;7049;49.444;8.522;2022-10-17T05:21:36;78027.31;;;-3.47;100.00
13954;BME280;7049;49.444;8.522;2022-10-17T05:26:38;78018.97;;;-3.47;100.00
13954;BME280;7049;49.444;8.522;2022-10-17T05:31:41;78044.06;;;-3.47;100.00
13954;BME280;7049;49.444;8.522;2022-10-17T05:36:44;78035.69;;;-3.47;100.00
13954;BME280;7049;49.444;8.522;2022-10-17T05:41:45;78039.88;;;-3.47;100.00
13954;BME280;7049;49.444;8.522;2022-10-17T05:46:47;78039.88;;;-3.47;100.00
13954;BME280;7049;49.444;8.522;2022-10-17T05:51:50;78039.88;;;-3.47;100.00
13954;BME280;7049;49.444;8.522;2022-10-17T05:56:52;78052.44;;;-3.47;100.00
13954;BME280;7049;49.444;8.522;2022-10-17T06:01:54;78065.00;;;-3.47;100.00
13954;BME280;7049;49.444;8.522;2022-10-17T06:06:57;78069.19;;;-3.47;100.00
13954;BME280;7049;49.444;8.522;2022-10-17T06:11:58;78067.09;;;-3.47;100.00
13954;BME280;7049;49.444;8.522;2022-10-17T06:17:00;78073.38;;;-3.47;100.00
13954;BME280;7049;49.444;8.522;2022-10-17T06:22:02;78073.38;;;-3.47;100.00
13954;BME280;7049;49.444;8.522;2022-10-17T06:27:04;78060.81;;;-3.47;100.00
13954;BME280;7049;49.444;8.522;2022-10-17T06:32:06;78073.38;;;-3.47;100.00
13954;BME280;7049;49.444;8.522;2022-10-17T06:37:09;78071.28;;;-3.47;100.00
13954;BME280;7049;49.444;8.522;2022-10-17T06:42:10;78062.91;;;-3.47;100.00
13954;BME280;7049;49.444;8.522;2022-10-17T06:47:11;78052.44;;;-3.47;100.00
13954;BME280;7049;49.444;8.522;2022-10-17T06:52:14;78046.16;;;-3.47;100.00
13954;BME280;7049;49.444;8.522;2022-10-17T06:57:16;78037.78;;;-3.47;100.00
13954;BME280;7049;49.444;8.522;2022-10-17T07:02:18;78018.97;;;-3.47;100.00
13954;BME280;7049;49.444;8.522;2022-10-17T07:07:21;78023.13;;;-3.47;100.00
13954;BME280;7049;49.444;8.522;2022-10-17T07:12:23;78010.59;;;-3.47;100.00
13954;BME280;7049;49.444;8.522;2022-10-17T07:17:24;77991.75;;;-3.47;100.00
13954;BME280;7049;49.444;8.522;2022-10-17T07:22:27;77964.56;;;-3.47;100.00
13954;BME280;7049;49.444;8.522;2022-10-17T07:27:28;77926.88;;;-3.47;100.00
13954;BME280;7049;49.444;8.522;2022-10-17T07:32:30;77910.13;;;-3.47;100.00
13954;BME280;7049;49.444;8.522;2022-10-17T07:37:33;77889.22;;;-3.47;100.00
13954;BME280;7049;49.444;8.522;2022-10-17T07:42:35;77868.28;;;-3.47;98.28
13954;BME280;7049;49.444;8.522;2022-10-17T07:47:37;77843.19;;;-3.47;96.45
13954;BME280;7049;49.444;8.522;2022-10-17T07:52:40;77822.25;;;-3.47;96.04
13954;BME280;7049;49.444;8.522;2022-10-17T07:57:42;77809.69;;;-3.47;97.00
13954;BME280;7049;49.444;8.522;2022-10-17T08:02:43;77792.97;;;-3.47;96.24
13954;BME280;7049;49.444;8.522;2022-10-17T08:07:46;77776.22;;;-3.47;95.50
13954;BME280;7049;49.444;8.522;2022-10-17T08:12:48;77734.38;;;-3.47;92.82
13954;BME280;7049;49.444;8.522;2022-10-17T08:17:49;77719.72;;;-3.47;91.08
13954;BME280;7049;49.444;8.522;2022-10-17T08:22:53;77696.72;;;-3.47;92.08
13954;BME280;7049;49.444;8.522;2022-10-17T08:27:55;77659.03;;;-3.47;89.64
13954;BME280;7049;49.444;8.522;2022-10-17T08:32:56;77642.31;;;-3.47;87.78
13954;BME280;7049;49.444;8.522;2022-10-17T08:37:59;77608.84;;;-3.47;85.44
13954;BME280;7049;49.444;8.522;2022-10-17T08:43:27;77566.97;;;-3.47;83.68
13954;BME280;7049;49.444;8.522;2022-10-17T08:48:35;77535.59;;;-3.47;81.34
13954;BME280;7049;49.444;8.522;2022-10-17T08:53:44;77506.31;;;-3.47;80.22
13954;BME280;7049;49.444;8.522;2022-10-17T08:58:49;77481.19;;;-3.47;78.33
13954;BME280;7049;49.444;8.522;2022-10-17T09:04:08;77462.38;;;-3.47;79.58
13954;BME280;7049;49.444;8.522;2022-10-17T09:09:28;77426.81;;;-3.47;75.15
13954;BME280;7049;49.444;8.522;2022-10-17T09:14:49;77391.22;;;-3.47;74.15
13954;BME280;7049;49.444;8.522;2022-10-17T09:19:59;77366.13;;;-3.47;72.99
13954;BME280;7049;49.444;8.522;2022-10-17T09:25:11;77353.56;;;-3.47;71.11
13954;BME280;7049;49.444;8.522;2022-10-17T09:30:31;77349.38;;;-3.47;69.95
13954;BME280;7049;49.444;8.522;2022-10-17T09:35:35;77336.84;;;-3.47;70.09
13954;BME280;7049;49.444;8.522;2022-10-17T09:40:40;77324.28;;;-3.47;68.56
13954;BME280;7049;49.444;8.522;2022-10-17T09:45:54;77313.81;;;-3.47;69.21
13954;BME280;7049;49.444;8.522;2022-10-17T09:50:59;77274.06;;;-3.47;68.94
13954;BME280;7049;49.444;8.522;2022-10-17T09:56:07;77236.41;;;-3.47;68.22
13954;BME280;7049;49.444;8.522;2022-10-17T10:01:21;77213.41;;;-3.47;64.51
13954;BME280;7049;49.444;8.522;2022-10-17T10:06:26;77190.38;;;-3.47;64.87
13954;BME280;7049;49.444;8.522;2022-10-17T10:16:56;77138.09;;;-3.47;62.83
13954;BME280;7049;49.444;8.522;2022-10-17T10:22:00;77131.81;;;-3.47;64.14
13954;BME280;7049;49.444;8.522;2022-10-17T10:27:03;77085.78;;;-3.47;61.78
13954;BME280;7049;49.444;8.522;2022-10-17T10:32:10;77060.69;;;-3.47;59.39
13954;BME280;7049;49.444;8.522;2022-10-17T10:37:18;77035.56;;;-3.47;58.32
13954;BME280;7049;49.444;8.522;2022-10-17T10:42:25;77016.75;;;-3.47;57.30
13954;BME280;7049;49.444;8.522;2022-10-17T10:47:29;76995.84;;;-3.47;57.41
13954;BME280;7049;49.444;8.522;2022-10-17T10:52:34;76974.91;;;-3.47;55.40
13954;BME280;7049;49.444;8.522;2022-10-17T10:57:42;76945.63;;;-3.47;52.99
13954;BME280;7049;49.444;8.522;2022-10-17T11:02:51;76956.09;;;-3.47;54.10
13954;BME280;7049;49.444;8.522;2022-10-17T11:08:02;76958.16;;;-3.47;55.32
13954;BME280;7049;49.444;8.522;2022-10-17T11:13:11;76958.16;;;-3.47;54.92
13954;BME280;7049;49.444;8.522;2022-10-17T11:18:21;76954.00;;;-3.47;53.73
13954;BME280;7049;49.444;8.522;2022-10-17T11:23:29;76945.63;;;-3.47;54.09
13954;BME280;7049;49.444;8.522;2022-10-17T11:28:35;76926.78;;;-3.47;53.64
13954;BME280;7049;49.444;8.522;2022-10-17T11:33:43;76905.88;;;-3.47;53.98
13954;BME280;7049;49.444;8.522;2022-10-17T11:38:48;76874.50;;;-3.47;52.71
13954;BME280;7049;49.444;8.522;2022-10-17T11:43:55;76872.41;;;-3.47;52.16
13954;BME280;7049;49.444;8.522;2022-10-17T11:49:05;76853.56;;;-3.47;51.63
13954;BME280;7049;49.444;8.522;2022-10-17T11:54:13;76845.22;;;-3.47;51.37
13954;BME280;7049;49.444;8.522;2022-10-17T11:59:41;76824.28;;;-3.47;50.76
13954;BME280;7049;49.444;8.522;2022-10-17T12:04:55;76805.47;;;-3.47;51.29
13954;BME280;7049;49.444;8.522;2022-10-17T12:10:20;76799.19;;;-3.47;50.60
13954;BME280;7049;49.444;8.522;2022-10-17T12:15:28;76784.53;;;-3.47;48.33
13954;BME280;7049;49.444;8.522;2022-10-17T12:20:34;76776.19;;;-3.47;48.28
13954;BME280;7049;49.444;8.522;2022-10-17T12:25:37;76780.38;;;-3.47;49.00
13954;BME280;7049;49.444;8.522;2022-10-17T12:30:50;76755.25;;;-3.47;46.64
13954;BME280;7049;49.444;8.522;2022-10-17T12:47:37;76746.91;;;-3.47;46.53
13954;BME280;7049;49.444;8.522;2022-10-17T12:52:57;76746.91;;;-3.47;46.66
13954;BME280;7049;49.444;8.522;2022-10-17T12:58:02;76742.72;;;-3.47;47.03
13954;BME280;7049;49.444;8.522;2022-10-17T13:03:12;76738.53;;;-3.47;46.99
13954;BME280;7049;49.444;8.522;2022-10-17T13:08:18;76738.53;;;-3.47;46.36
13954;BME280;7049;49.444;8.522;2022-10-17T13:13:25;76736.44;;;-3.47;47.57
13954;BME280;7049;49.444;8.522;2022-10-17T13:18:34;76734.34;;;-3.47;48.09
13954;BME280;7049;49.444;8.522;2022-10-17T13:23:36;76732.25;;;-3.47;46.84
13954;BME280;7049;49.444;8.522;2022-10-17T13:28:38;76732.25;;;-3.47;47.96
13954;BME280;7049;49.444;8.522;2022-10-17T13:33:41;76734.34;;;-3.47;47.18
13954;BME280;7049;49.444;8.522;2022-10-17T13:38:42;76740.63;;;-3.47;47.66
13954;BME280;7049;49.444;8.522;2022-10-17T13:43:44;76734.34;;;-3.47;47.09
13954;BME280;7049;49.444;8.522;2022-10-17T13:48:47;76744.81;;;-3.47;46.55
13954;BME280;7049;49.444;8.522;2022-10-17T13:53:48;76751.06;;;-3.47;47.33
13954;BME280;7049;49.444;8.522;2022-10-17T13:58:51;76757.34;;;-3.47;46.95
13954;BME280;7049;49.444;8.522;2022-10-17T14:03:57;76763.63;;;-3.47;47.23
13954;BME280;7049;49.444;8.522;2022-10-17T14:09:02;76765.72;;;-3.47;47.51
13954;BME280;7049;49.444;8.522;2022-10-17T14:14:07;76772.00;;;-3.47;47.40
13954;BME280;7049;49.444;8.522;2022-10-17T14:19:24;76786.63;;;-3.47;48.01
13954;BME280;7049;49.444;8.522;2022-10-17T14:24:28;76792.91;;;-3.47;48.75
13954;BME280;7049;49.444;8.522;2022-10-17T14:29:48;76811.75;;;-3.47;49.27
13954;BME280;7049;49.444;8.522;2022-10-17T14:34:54;76828.47;;;-3.47;49.83
13954;BME280;7049;49.444;8.522;2022-10-17T14:39:58;76855.66;;;-3.47;51.01
13954;BME280;7049;49.444;8.522;2022-10-17T14:45:05;76872.41;;;-3.47;51.54
13954;BME280;7049;49.444;8.522;2022-10-17T14:50:20;76882.88;;;-3.47;52.70
13954;BME280;7049;49.444;8.522;2022-10-17T14:55:24;76891.22;;;-3.47;53.29
13954;BME280;7049;49.444;8.522;2022-10-17T15:00:26;76912.16;;;-3.47;53.68
13954;BME280;7049;49.444;8.522;2022-10-17T15:05:29;76920.53;;;-3.47;53.68
13954;BME280;7049;49.444;8.522;2022-10-17T15:10:34;76949.81;;;-3.47;55.01
13954;BME280;7049;49.444;8.522;2022-10-17T15:15:36;76970.72;;;-3.47;55.70
13954;BME280;7049;49.444;8.522;2022-10-17T15:20:39;77002.09;;;-3.47;56.82
13954;BME280;7049;49.444;8.522;2022-10-17T15:25:41;77018.84;;;-3.47;57.30
13954;BME280;7049;49.444;8.522;2022-10-17T15:30:42;77035.56;;;-3.47;58.39
13954;BME280;7049;49.444;8.522;2022-10-17T15:35:45;77027.22;;;-3.47;58.80
13954;BME280;7049;49.444;8.522;2022-10-17T15:40:46;77012.56;;;-3.47;58.40
13954;BME280;7049;49.444;8.522;2022-10-17T15:45:51;76962.34;;;-3.47;56.82
13954;BME280;7049;49.444;8.522;2022-10-17T15:50:54;76889.13;;;-3.47;54.49
13954;BME280;7049;49.444;8.522;2022-10-17T15:55:55;76864.03;;;-3.47;52.81
13954;BME280;7049;49.444;8.522;2022-10-17T16:00:56;76901.69;;;-3.47;53.54
13954;BME280;7049;49.444;8.522;2022-10-17T16:05:59;76960.25;;;-3.47;55.86
13954;BME280;7049;49.444;8.522;2022-10-17T16:11:01;77016.75;;;-3.47;57.95
13954;BME280;7049;49.444;8.522;2022-10-17T16:16:02;77069.06;;;-3.47;60.42
13954;BME280;7049;49.444;8.522;2022-10-17T16:21:05;77106.72;;;-3.47;62.54
13954;BME280;7049;49.444;8.522;2022-10-17T16:26:07;77133.91;;;-3.47;64.72
13954;BME280;7049;49.444;8.522;2022-10-17T16:31:17;77161.09;;;-3.47;67.04
13954;BME280;7049;49.444;8.522;2022-10-17T16:36:21;77194.56;;;-3.47;69.07
13954;BME280;7049;49.444;8.522;2022-10-17T16:41:24;77217.59;;;-3.47;69.97
13954;BME280;7049;49.444;8.522;2022-10-17T16:46:27;77232.22;;;-3.47;70.73
13954;BME280;7049;49.444;8.522;2022-10-17T16:51:30;77259.44;;;-3.47;72.43
13954;BME280;7049;49.444;8.522;2022-10-17T16:56:32;77280.34;;;-3.47;73.60
13954;BME280;7049;49.444;8.522;2022-10-17T17:01:34;77307.53;;;-3.47;74.47
13954;BME280;7049;49.444;8.522;2022-10-17T17:06:38;77318.00;;;-3.47;75.41
13954;BME280;7049;49.444;8.522;2022-10-17T17:11:40;77341.03;;;-3.47;76.09
13954;BME280;7049;49.444;8.522;2022-10-17T17:16:41;77364.03;;;-3.47;76.61
13954;BME280;7049;49.444;8.522;2022-10-17T17:21:45;77384.97;;;-3.47;77.30
13954;BME280;7049;49.444;8.522;2022-10-17T17:26:51;77405.88;;;-3.47;78.11
13954;BME280;7049;49.444;8.522;2022-10-17T17:31:52;77422.63;;;-3.47;78.73
13954;BME280;7049;49.444;8.522;2022-10-17T17:36:55;77437.25;;;-3.47;79.63
13954;BME280;7049;49.444;8.522;2022-10-17T17:41:57;77449.81;;;-3.47;80.13
13954;BME280;7049;49.444;8.522;2022-10-17T17:46:58;77468.66;;;-3.47;81.17
13954;BME280;7049;49.444;8.522;2022-10-17T17:52:01;77481.19;;;-3.47;82.09
13954;BME280;7049;49.444;8.522;2022-10-17T17:57:03;77495.84;;;-3.47;82.68
13954;BME280;7049;49.444;8.522;2022-10-17T18:02:04;77514.69;;;-3.47;82.95
13954;BME280;7049;49.444;8.522;2022-10-17T18:07:09;77529.31;;;-3.47;83.65
13954;BME280;7049;49.444;8.522;2022-10-17T18:12:10;77541.88;;;-3.47;84.32
13954;BME280;7049;49.444;8.522;2022-10-17T18:17:12;77556.53;;;-3.47;84.75
13954;BME280;7049;49.444;8.522;2022-10-17T18:22:14;77564.91;;;-3.47;85.26
13954;BME280;7049;49.444;8.522;2022-10-17T18:27:16;77566.97;;;-3.47;85.87
13954;BME280;7049;49.444;8.522;2022-10-17T18:32:17;77577.44;;;-3.47;86.53
13954;BME280;7049;49.444;8.522;2022-10-17T18:37:20;77579.53;;;-3.47;87.10
13954;BME280;7049;49.444;8.522;2022-10-17T18:42:22;77590.00;;;-3.47;87.28
13954;BME280;7049;49.444;8.522;2022-10-17T18:47:23;77596.28;;;-3.47;87.83
13954;BME280;7049;49.444;8.522;2022-10-17T18:52:26;77602.56;;;-3.47;88.34
13954;BME280;7049;49.444;8.522;2022-10-17T18:57:27;77610.91;;;-3.47;88.65
13954;BME280;7049;49.444;8.522;2022-10-17T19:02:29;77621.38;;;-3.47;89.04
13954;BME280;7049;49.444;8.522;2022-10-17T19:07:32;77625.56;;;-3.47;89.36
13954;BME280;7049;49.444;8.522;2022-10-17T19:12:33;77631.84;;;-3.47;89.56
13954;BME280;7049;49.444;8.522;2022-10-17T19:17:35;77631.84;;;-3.47;89.69
13954;BME280;7049;49.444;8.522;2022-10-17T19:22:37;77638.13;;;-3.47;89.91
13954;BME280;7049;49.444;8.522;2022-10-17T19:27:39;77646.50;;;-3.47;90.06
13954;BME280;7049;49.444;8.522;2022-10-17T19:32:40;77654.88;;;-3.47;89.91
13954;BME280;7049;49.444;8.522;2022-10-17T19:37:43;77656.94;;;-3.47;89.98
13954;BME280;7049;49.444;8.522;2022-10-17T19:42:45;77663.22;;;-3.47;89.88
13954;BME280;7049;49.444;8.522;2022-10-17T19:47:46;77675.78;;;-3.47;90.14
13954;BME280;7049;49.444;8.522;2022-10-17T19:52:49;77690.44;;;-3.47;90.31
13954;BME280;7049;49.444;8.522;2022-10-17T19:57:51;77692.53;;;-3.47;90.60
13954;BME280;7049;49.444;8.522;2022-10-17T20:02:52;77703.00;;;-3.47;90.68
13954;BME280;7049;49.444;8.522;2022-10-17T20:07:55;77700.91;;;-3.47;90.94
13954;BME280;7049;49.444;8.522;2022-10-17T20:12:57;77711.34;;;-3.47;91.03
13954;BME280;7049;49.444;8.522;2022-10-17T20:17:58;77717.63;;;-3.47;91.34
13954;BME280;7049;49.444;8.522;2022-10-17T20:23:02;77723.91;;;-3.47;91.77
13954;BME280;7049;49.444;8.522;2022-10-17T20:28:04;77726.00;;;-3.47;91.94
13954;BME280;7049;49.444;8.522;2022-10-17T20:33:06;77734.38;;;-3.47;92.18
13954;BME280;7049;49.444;8.522;2022-10-17T20:38:09;77746.94;;;-3.47;92.58
13954;BME280;7049;49.444;8.522;2022-10-17T20:43:12;77740.66;;;-3.47;93.10
13954;BME280;7049;49.444;8.522;2022-10-17T20:48:14;77744.84;;;-3.47;93.11
13954;BME280;7049;49.444;8.522;2022-10-17T20:53:17;77751.13;;;-3.47;92.97
13954;BME280;7049;49.444;8.522;2022-10-17T20:58:19;77759.47;;;-3.47;93.22
13954;BME280;7049;49.444;8.522;2022-10-17T21:03:21;77776.22;;;-3.47;93.19
13954;BME280;7049;49.444;8.522;2022-10-17T21:08:24;77776.22;;;-3.47;93.50
13954;BME280;7049;49.444;8.522;2022-10-17T21:13:26;77784.59;;;-3.47;93.65
13954;BME280;7049;49.444;8.522;2022-10-17T21:18:27;77803.41;;;-3.47;93.80
13954;BME280;7049;49.444;8.522;2022-10-17T21:23:30;77815.97;;;-3.47;93.96
13954;BME280;7049;49.444;8.522;2022-10-17T21:28:32;77820.16;;;-3.47;94.30
13954;BME280;7049;49.444;8.522;2022-10-17T21:33:34;77820.16;;;-3.47;94.47
13954;BME280;7049;49.444;8.522;2022-10-17T21:38:37;77818.06;;;-3.47;94.55
13954;BME280;7049;49.444;8.522;2022-10-17T21:43:39;77822.25;;;-3.47;95.33
13954;BME280;7049;49.444;8.522;2022-10-17T21:48:42;77824.34;;;-3.47;95.65
13954;BME280;7049;49.444;8.522;2022-10-17T21:53:45;77830.63;;;-3.47;96.01
13954;BME280;7049;49.444;8.522;2022-10-17T21:58:47;77826.44;;;-3.47;96.17
13954;BME280;7049;49.444;8.522;2022-10-17T22:03:50;77826.44;;;-3.47;96.80
13954;BME280;7049;49.444;8.522;2022-10-17T22:08:54;77826.44;;;-3.47;97.19
13954;BME280;7049;49.444;8.522;2022-10-17T22:13:57;77824.34;;;-3.47;97.23
13954;BME280;7049;49.444;8.522;2022-10-17T22:19:01;77820.16;;;-3.47;97.54
13954;BME280;7049;49.444;8.522;2022-10-17T22:24:06;77826.44;;;-3.47;97.57
13954;BME280;7049;49.444;8.522;2022-10-17T22:29:08;77822.25;;;-3.47;97.59
13954;BME280;7049;49.444;8.522;2022-10-17T22:34:11;77826.44;;;-3.47;97.59
13954;BME280;7049;49.444;8.522;2022-10-17T22:39:13;77830.63;;;-3.47;97.33
13954;BME280;7049;49.444;8.522;2022-10-17T22:44:15;77834.81;;;-3.47;97.14
13954;BME280;7049;49.444;8.522;2022-10-17T22:49:16;77832.72;;;-3.47;97.34
13954;BME280;7049;49.444;8.522;2022-10-17T22:54:19;77830.63;;;-3.47;98.02
13954;BME280;7049;49.444;8.522;2022-10-17T22:59:21;77834.81;;;-3.47;98.52
13954;BME280;7049;49.444;8.522;2022-10-17T23:04:22;77836.91;;;-3.47;98.63
13954;BME280;7049;49.444;8.522;2022-10-17T23:09:25;77847.38;;;-3.47;98.43
13954;BME280;7049;49.444;8.522;2022-10-17T23:14:26;77847.38;;;-3.47;98.59
13954;BME280;7049;49.444;8.522;2022-10-17T23:19:28;77847.38;;;-3.47;98.81
13954;BME280;7049;49.444;8.522;2022-10-17T23:24:31;77843.19;;;-3.47;98.47
13954;BME280;7049;49.444;8.522;2022-10-17T23:29:33;77834.81;;;-3.47;98.25
13954;BME280;7049;49.444;8.522;2022-10-17T23:34:34;77843.19;;;-3.47;98.14
13954;BME280;7049;49.444;8.522;2022-10-17T23:39:37;77839.00;;;-3.47;98.24
13954;BME280;7049;49.444;8.522;2022-10-17T23:44:39;77834.81;;;-3.47;98.41
13954;BME280;7049;49.444;8.522;2022-10-17T23:49:40;77834.81;;;-3.47;98.54
13954;BME280;7049;49.444;8.522;2022-10-17T23:54:43;77830.63;;;-3.47;98.63
13954;BME280;7049;49.444;8.522;2022-10-17T23:59:44;77828.53;;;-3.47;98.55
